createdAt,value
2023-04-15T00:00:59.777Z,1.70
2023-04-15T00:03:28.697Z,1.70
2023-04-15T00:05:57.545Z,1.50
2023-04-15T00:08:27.486Z,1.73
2023-04-15T00:10:55.930Z,1.57
2023-04-15T00:13:24.327Z,1.50
2023-04-15T00:15:52.740Z,1.53
2023-04-15T00:18:21.125Z,1.60
2023-04-15T00:20:50.237Z,1.60
2023-04-15T00:23:19.097Z,1.60
2023-04-15T00:25:48.913Z,1.60
2023-04-15T00:28:17.459Z,1.60
2023-04-15T00:30:45.963Z,1.60
2023-04-15T00:33:14.811Z,1.67
2023-04-15T00:35:43.253Z,1.40
2023-04-15T00:38:11.817Z,1.63
2023-04-15T00:40:41.348Z,1.53
2023-04-15T00:43:11.187Z,1.50
2023-04-15T00:45:39.659Z,1.50
2023-04-15T00:48:09.531Z,1.50
2023-04-15T00:50:38.064Z,1.53
2023-04-15T00:53:06.545Z,2.20
2023-04-15T00:55:35.164Z,1.63
2023-04-15T00:58:03.626Z,1.90
2023-04-15T01:00:33.497Z,1.73
2023-04-15T01:03:02.121Z,1.80
2023-04-15T01:05:30.715Z,1.57
2023-04-15T01:07:59.427Z,1.70
2023-04-15T01:10:27.875Z,1.87
2023-04-15T01:12:56.521Z,1.50
2023-04-15T01:15:24.959Z,1.80
2023-04-15T01:17:54.859Z,1.63
2023-04-15T01:20:23.512Z,1.60
2023-04-15T01:22:52.816Z,1.63
2023-04-15T01:25:22.070Z,1.70
2023-04-15T01:27:51.947Z,1.67
2023-04-15T01:30:20.939Z,1.50
2023-04-15T01:32:49.367Z,1.50
2023-04-15T01:35:18.259Z,1.90
2023-04-15T01:37:47.323Z,1.50
2023-04-15T01:40:15.877Z,1.67
2023-04-15T01:42:44.511Z,1.60
2023-04-15T01:45:14.664Z,1.50
2023-04-15T01:47:43.647Z,1.40
2023-04-15T01:50:13.124Z,1.70
2023-04-15T01:52:41.643Z,1.80
2023-04-15T01:55:10.546Z,1.70
2023-04-15T01:57:38.976Z,1.60
2023-04-15T02:00:08.312Z,1.70
2023-04-15T02:02:38.242Z,1.93
2023-04-15T02:05:07.107Z,2.57
2023-04-15T02:07:35.772Z,2.10
2023-04-15T02:10:04.590Z,2.27
2023-04-15T02:12:33.032Z,2.50
2023-04-15T02:15:01.469Z,2.07
2023-04-15T02:17:29.914Z,2.40
2023-04-15T02:19:59.734Z,2.40
2023-04-15T02:22:28.186Z,2.30
2023-04-15T02:24:56.587Z,2.13
2023-04-15T02:27:25.009Z,2.40
2023-04-15T02:29:53.465Z,2.70
2023-04-15T02:32:24.428Z,2.70
2023-04-15T02:34:53.186Z,2.53
2023-04-15T02:37:23.262Z,2.43
2023-04-15T02:39:51.634Z,2.90
2023-04-15T02:42:21.703Z,2.40
2023-04-15T02:44:50.146Z,2.47
2023-04-15T02:47:18.571Z,2.60
2023-04-15T02:49:46.986Z,2.20
2023-04-15T02:52:15.783Z,2.60
2023-04-15T02:54:45.743Z,2.77
2023-04-15T02:57:14.144Z,2.80
2023-04-15T02:59:42.572Z,2.73
2023-04-15T03:02:11.254Z,2.73
2023-04-15T03:04:39.881Z,3.10
2023-04-15T03:07:08.422Z,2.30
2023-04-15T03:09:36.780Z,2.87
2023-04-15T03:12:06.618Z,2.90
2023-04-15T03:14:35.044Z,2.57
2023-04-15T03:17:03.476Z,2.30
2023-04-15T03:19:31.924Z,3.00
2023-04-15T03:22:00.374Z,2.30
2023-04-15T03:24:29.796Z,2.60
2023-04-15T03:26:58.316Z,2.40
2023-04-15T03:29:28.170Z,3.00
2023-04-15T03:31:56.915Z,2.30
2023-04-15T03:34:25.293Z,2.60
2023-04-15T03:36:53.713Z,3.00
2023-04-15T03:39:22.136Z,2.70
2023-04-15T03:41:51.460Z,2.70
2023-04-15T03:44:19.858Z,2.83
2023-04-15T03:46:49.858Z,2.90
2023-04-15T03:49:19.364Z,2.80
2023-04-15T03:51:47.831Z,3.20
2023-04-15T03:54:16.315Z,2.80
2023-04-15T03:56:44.719Z,3.27
2023-04-15T03:59:13.150Z,2.90
2023-04-15T04:01:41.568Z,2.83
2023-04-15T04:04:11.642Z,2.93
2023-04-15T04:06:40.120Z,3.00
2023-04-15T04:09:08.531Z,3.00
2023-04-15T04:11:37.635Z,2.90
2023-04-15T04:14:06.489Z,2.97
2023-04-15T04:16:34.933Z,2.70
2023-04-15T04:19:03.589Z,3.00
2023-04-15T04:21:34.200Z,2.97
2023-04-15T04:24:02.623Z,3.03
2023-04-15T04:26:31.205Z,2.93
2023-04-15T04:28:59.850Z,2.83
2023-04-15T04:31:28.498Z,3.00
2023-04-15T04:33:56.921Z,2.73
2023-04-15T04:36:26.451Z,2.80
2023-04-15T04:38:56.263Z,2.60
2023-04-15T04:41:24.836Z,2.70
2023-04-15T04:43:53.259Z,2.90
2023-04-15T04:46:21.720Z,3.23
2023-04-15T04:48:50.122Z,3.20
2023-04-15T04:51:18.709Z,3.53
2023-04-15T04:53:47.175Z,2.93
2023-04-15T04:56:16.966Z,2.93
2023-04-15T04:58:45.377Z,3.47
2023-04-15T05:01:14.037Z,2.80
2023-04-15T05:03:42.591Z,2.80
2023-04-15T05:06:11.369Z,2.63
2023-04-15T05:08:41.313Z,2.80
2023-04-15T05:11:09.753Z,3.30
2023-04-15T05:13:39.732Z,3.60
2023-04-15T05:16:08.525Z,3.10
2023-04-15T05:18:37.960Z,2.97
2023-04-15T05:21:07.168Z,3.30
2023-04-15T05:23:35.658Z,3.07
2023-04-15T05:26:04.121Z,2.90
2023-04-15T05:28:32.573Z,3.50
2023-04-15T05:31:02.426Z,3.00
2023-04-15T05:33:30.855Z,3.50
2023-04-15T05:35:59.273Z,3.10
2023-04-15T05:38:27.679Z,2.83
2023-04-15T05:40:56.664Z,3.30
2023-04-15T05:43:25.122Z,3.13
2023-04-15T05:45:53.569Z,3.10
2023-04-15T05:48:23.387Z,3.13
2023-04-15T05:50:51.820Z,3.13
2023-04-15T05:53:20.742Z,3.07
2023-04-15T05:55:49.173Z,4.70
2023-04-15T05:58:17.608Z,3.23
2023-04-15T06:00:46.233Z,3.00
2023-04-15T06:03:14.730Z,3.20
2023-04-15T06:05:45.046Z,3.57
2023-04-15T06:08:13.853Z,3.10
2023-04-15T06:10:42.271Z,2.80
2023-04-15T06:13:10.680Z,3.27
2023-04-15T06:15:39.087Z,2.90
2023-04-15T06:18:07.485Z,2.70
2023-04-15T06:20:36.706Z,3.00
2023-04-15T06:23:06.778Z,2.90
2023-04-15T06:25:35.158Z,3.20
2023-04-15T06:28:03.829Z,3.20
2023-04-15T06:30:32.235Z,3.43
2023-04-15T06:33:00.716Z,2.90
2023-04-15T06:35:29.192Z,3.50
2023-04-15T06:37:57.695Z,2.97
2023-04-15T06:40:28.281Z,2.90
2023-04-15T06:42:57.163Z,2.70
2023-04-15T06:45:25.728Z,2.67
2023-04-15T06:47:54.217Z,2.80
2023-04-15T06:50:22.674Z,2.97
2023-04-15T06:52:51.344Z,2.70
2023-04-15T06:55:19.818Z,2.77
2023-04-15T06:57:49.677Z,2.57
2023-04-15T07:00:18.364Z,2.80
2023-04-15T07:02:47.250Z,2.50
2023-04-15T07:05:22.147Z,2.47
2023-04-15T07:07:50.551Z,2.60
2023-04-15T07:10:19.485Z,2.40
2023-04-15T07:12:50.818Z,2.77
2023-04-15T07:15:19.242Z,2.97
2023-04-15T07:17:47.701Z,2.83
2023-04-15T07:20:16.149Z,2.77
2023-04-15T07:22:44.557Z,2.57
2023-04-15T07:25:12.987Z,2.70
2023-04-15T07:27:41.768Z,2.63
2023-04-15T07:30:12.564Z,2.67
2023-04-15T07:32:41.123Z,2.70
2023-04-15T07:35:10.306Z,2.90
2023-04-15T07:37:38.719Z,2.47
2023-04-15T07:40:09.031Z,2.40
2023-04-15T07:42:40.689Z,2.50
2023-04-15T07:45:10.406Z,2.63
2023-04-15T07:47:40.967Z,2.47
2023-04-15T07:50:09.621Z,2.43
2023-04-15T07:52:39.362Z,2.57
2023-04-15T07:55:08.765Z,2.77
2023-04-15T07:57:37.313Z,2.37
2023-04-15T08:00:07.677Z,2.37
2023-04-15T08:02:38.144Z,2.70
2023-04-15T08:05:10.707Z,2.33
2023-04-15T08:07:39.786Z,2.20
2023-04-15T08:10:08.699Z,2.70
2023-04-15T08:12:37.211Z,2.43
2023-04-15T08:15:06.727Z,2.50
2023-04-15T08:17:35.229Z,2.27
2023-04-15T08:20:04.475Z,2.47
2023-04-15T08:22:34.537Z,2.40
2023-04-15T08:25:03.506Z,2.37
2023-04-15T08:27:32.167Z,2.50
2023-04-15T08:30:02.740Z,3.13
2023-04-15T08:32:32.777Z,2.33
2023-04-15T08:35:01.913Z,2.17
2023-04-15T08:37:30.386Z,2.90
2023-04-15T08:40:00.432Z,2.70
2023-04-15T08:42:33.135Z,2.50
2023-04-15T08:45:02.785Z,2.93
2023-04-15T08:47:32.905Z,2.80
2023-04-15T08:50:01.958Z,2.83
2023-04-15T08:52:30.450Z,2.67
2023-04-15T08:55:00.508Z,2.47
2023-04-15T08:57:29.186Z,2.50
2023-04-15T08:59:58.205Z,2.40
2023-04-15T09:02:27.460Z,2.87
2023-04-15T09:04:56.823Z,2.50
2023-04-15T09:07:25.280Z,2.43
2023-04-15T09:09:53.673Z,2.60
2023-04-15T09:12:23.503Z,2.50
2023-04-15T09:14:52.496Z,2.17
2023-04-15T09:17:22.265Z,2.37
2023-04-15T09:19:50.869Z,2.50
2023-04-15T09:22:19.296Z,2.87
2023-04-15T09:24:47.720Z,2.13
2023-04-15T09:27:18.366Z,2.37
2023-04-15T09:29:51.786Z,2.50
2023-04-15T09:32:21.272Z,2.00
2023-04-15T09:34:49.701Z,1.90
2023-04-15T09:37:31.756Z,2.37
2023-04-15T09:40:00.978Z,2.73
2023-04-15T09:42:29.480Z,2.97
2023-04-15T09:45:09.832Z,2.03
2023-04-15T09:47:38.262Z,2.30
2023-04-15T09:50:07.009Z,2.00
2023-04-15T09:52:35.467Z,2.23
2023-04-15T09:55:04.441Z,2.27
2023-04-15T09:57:36.753Z,2.20
2023-04-15T10:00:08.184Z,2.10
2023-04-15T10:02:36.798Z,2.00
2023-04-15T10:05:06.126Z,1.93
2023-04-15T10:07:35.201Z,1.83
2023-04-15T10:10:04.442Z,2.40
2023-04-15T10:12:33.642Z,1.97
2023-04-15T10:15:05.971Z,2.27
2023-04-15T10:17:37.239Z,2.20
2023-04-15T10:20:07.144Z,2.03
2023-04-15T10:22:35.699Z,2.13
2023-04-15T10:25:04.792Z,1.92
2023-04-15T10:27:33.864Z,2.40
2023-04-15T10:30:03.695Z,2.00
2023-04-15T10:32:32.482Z,2.28
2023-04-15T10:35:03.544Z,2.20
2023-04-15T10:37:36.053Z,2.42
2023-04-15T10:40:25.424Z,2.42
2023-04-15T10:42:54.072Z,2.25
2023-04-15T10:45:22.702Z,2.58
2023-04-15T10:47:55.583Z,2.20
2023-04-15T10:50:28.272Z,2.60
2023-04-15T10:52:57.726Z,2.20
2023-04-15T10:55:27.447Z,2.40
2023-04-15T10:57:56.360Z,1.98
2023-04-15T11:00:27.740Z,2.25
2023-04-15T11:02:57.539Z,2.92
2023-04-15T11:05:46.534Z,2.37
2023-04-15T11:08:16.421Z,2.60
2023-04-15T11:10:57.721Z,2.43
2023-04-15T11:13:31.498Z,2.03
2023-04-15T11:16:01.681Z,1.98
2023-04-15T11:18:31.929Z,2.23
2023-04-15T11:21:01.306Z,2.20
2023-04-15T11:23:32.220Z,2.30
2023-04-15T11:26:01.079Z,2.00
2023-04-15T11:28:30.093Z,2.20
2023-04-15T11:30:59.229Z,2.70
2023-04-15T11:33:27.637Z,2.15
2023-04-15T11:35:56.204Z,2.20
2023-04-15T11:38:24.843Z,2.03
2023-04-15T11:40:55.568Z,1.93
2023-04-15T11:43:25.268Z,2.10
2023-04-15T11:45:54.446Z,1.83
2023-04-15T11:48:24.372Z,1.87
2023-04-15T11:50:57.078Z,2.08
2023-04-15T11:53:26.206Z,2.03
2023-04-15T11:55:56.064Z,2.55
2023-04-15T11:58:25.072Z,1.88
2023-04-15T12:00:54.400Z,1.88
2023-04-15T12:03:26.623Z,2.08
2023-04-15T12:06:08.717Z,2.10
2023-04-15T12:09:00.313Z,1.95
2023-04-15T12:11:34.483Z,1.90
2023-04-15T12:14:06.021Z,1.80
2023-04-15T12:16:37.213Z,1.88
2023-04-15T12:19:17.722Z,2.00
2023-04-15T12:21:47.844Z,2.00
2023-04-15T12:24:16.255Z,2.00
2023-04-15T12:26:50.574Z,1.67
2023-04-15T12:29:19.511Z,1.80
2023-04-15T12:31:52.214Z,1.60
2023-04-15T12:34:21.119Z,2.03
2023-04-15T12:36:49.580Z,1.80
2023-04-15T12:39:18.026Z,1.98
2023-04-15T12:41:46.839Z,2.05
2023-04-15T12:44:16.976Z,1.75
2023-04-15T12:46:46.168Z,2.00
2023-04-15T12:49:16.087Z,1.83
2023-04-15T12:51:44.768Z,1.70
2023-04-15T12:54:13.600Z,1.70
2023-04-15T12:56:41.983Z,1.90
2023-04-15T12:59:10.407Z,1.93
2023-04-15T13:01:40.323Z,1.80
2023-04-15T13:04:09.282Z,1.60
2023-04-15T13:06:38.475Z,1.83
2023-04-15T13:09:07.397Z,1.70
2023-04-15T13:11:36.646Z,1.97
2023-04-15T13:14:06.123Z,1.77
2023-04-15T13:16:35.423Z,2.13
2023-04-15T13:19:05.756Z,2.10
2023-04-15T13:21:35.957Z,1.80
2023-04-15T13:24:07.283Z,1.67
2023-04-15T13:26:36.050Z,1.73
2023-04-15T13:29:04.641Z,1.63
2023-04-15T13:31:33.096Z,1.93
2023-04-15T13:34:01.658Z,1.60
2023-04-15T13:36:31.855Z,1.52
2023-04-15T13:39:00.639Z,1.40
2023-04-15T13:41:29.190Z,1.42
2023-04-15T13:43:58.471Z,1.40
2023-04-15T13:46:26.979Z,1.50
2023-04-15T13:48:55.414Z,1.45
2023-04-15T13:51:25.055Z,1.40
2023-04-15T13:53:54.952Z,1.55
2023-04-15T13:56:23.376Z,1.20
2023-04-15T13:58:52.891Z,1.38
2023-04-15T14:01:21.579Z,1.50
2023-04-15T14:03:50.070Z,1.80
2023-04-15T14:06:18.563Z,1.40
2023-04-15T14:08:47.062Z,1.53
2023-04-15T14:11:16.847Z,1.38
2023-04-15T14:13:45.251Z,1.40
2023-04-15T14:16:13.740Z,1.50
2023-04-15T14:18:42.373Z,6.05
2023-04-15T14:21:10.875Z,5.53
2023-04-15T14:23:39.306Z,4.60
2023-04-15T14:26:07.720Z,3.10
2023-04-15T14:28:38.516Z,2.08
2023-04-15T14:31:07.261Z,2.13
2023-04-15T14:33:35.776Z,1.98
2023-04-15T14:36:04.234Z,1.70
2023-04-15T14:38:33.764Z,1.92
2023-04-15T14:41:02.317Z,1.52
2023-04-15T14:43:30.734Z,1.50
2023-04-15T14:46:00.840Z,1.30
2023-04-15T14:48:29.340Z,1.70
2023-04-15T14:50:57.793Z,1.50
2023-04-15T14:53:26.262Z,1.60
2023-04-15T14:55:54.700Z,1.60
2023-04-15T14:58:23.215Z,1.30
2023-04-15T15:00:51.664Z,1.40
2023-04-15T15:03:21.683Z,1.40
2023-04-15T15:05:50.302Z,1.25
2023-04-15T15:08:18.899Z,1.60
2023-04-15T15:10:48.232Z,1.40
2023-04-15T15:13:19.117Z,1.77
2023-04-15T15:15:49.300Z,1.40
2023-04-15T15:18:19.079Z,1.50
2023-04-15T15:20:49.599Z,1.50
2023-04-15T15:23:18.002Z,1.35
2023-04-15T15:25:47.706Z,1.52
2023-04-15T15:28:16.154Z,1.60
2023-04-15T15:30:44.590Z,1.20
2023-04-15T15:33:13.028Z,1.20
2023-04-15T15:35:41.528Z,1.30
2023-04-15T15:38:12.929Z,1.35
2023-04-15T15:40:41.544Z,1.40
2023-04-15T15:43:10.046Z,1.23
2023-04-15T15:45:38.552Z,1.43
2023-04-15T15:48:07.750Z,1.08
2023-04-15T15:50:36.514Z,1.33
2023-04-15T15:53:04.985Z,1.20
2023-04-15T15:55:34.957Z,1.20
2023-04-15T15:58:03.474Z,1.23
2023-04-15T16:00:31.874Z,1.20
2023-04-15T16:05:31.818Z,1.40
2023-04-15T16:08:00.238Z,1.20
2023-04-15T16:10:28.908Z,1.50
2023-04-15T16:12:58.991Z,1.25
2023-04-15T16:15:27.729Z,1.30
2023-04-15T16:17:56.245Z,1.20
2023-04-15T16:20:24.810Z,1.13
2023-04-15T16:22:53.247Z,1.20
2023-04-15T16:25:21.806Z,1.10
2023-04-15T16:27:59.321Z,1.30
2023-04-15T16:30:33.218Z,1.40
2023-04-15T16:33:01.852Z,1.20
2023-04-15T16:35:31.303Z,1.27
2023-04-15T16:38:00.597Z,1.25
2023-04-15T16:40:29.025Z,1.52
2023-04-15T16:42:57.530Z,1.50
2023-04-15T16:45:25.962Z,1.30
2023-04-15T16:47:56.796Z,1.35
2023-04-15T16:50:25.298Z,1.58
2023-04-15T16:52:53.731Z,1.30
2023-04-15T16:55:22.303Z,1.40
2023-04-15T16:58:01.624Z,1.17
2023-04-15T17:00:32.315Z,1.50
2023-04-15T17:03:02.419Z,1.70
2023-04-15T17:05:31.650Z,2.03
2023-04-15T17:08:00.129Z,1.90
2023-04-15T17:10:28.637Z,1.87
2023-04-15T17:12:57.578Z,2.07
2023-04-15T17:15:26.203Z,1.93
2023-04-15T17:17:54.718Z,1.80
2023-04-15T17:20:24.675Z,2.23
2023-04-15T17:22:53.310Z,1.83
2023-04-15T17:25:21.825Z,1.73
2023-04-15T17:27:50.260Z,1.93
2023-04-15T17:30:18.700Z,1.97
2023-04-15T17:32:47.172Z,2.00
2023-04-15T17:35:15.643Z,1.80
2023-04-15T17:37:45.560Z,1.80
2023-04-15T17:40:14.916Z,1.80
2023-04-15T17:42:43.488Z,1.50
2023-04-15T17:45:12.523Z,1.63
2023-04-15T17:47:40.936Z,1.80
2023-04-15T17:50:10.042Z,1.50
2023-04-15T17:52:38.469Z,1.67
2023-04-15T17:55:09.202Z,1.97
2023-04-15T17:57:37.614Z,1.90
2023-04-15T18:00:06.568Z,2.00
2023-04-15T18:02:37.199Z,1.70
2023-04-15T18:05:06.263Z,1.90
2023-04-15T18:07:34.772Z,1.73
2023-04-15T18:10:03.277Z,2.07
2023-04-15T18:12:33.096Z,2.00
2023-04-15T18:15:01.636Z,1.90
2023-04-15T18:17:30.172Z,1.83
2023-04-15T18:19:58.592Z,2.10
2023-04-15T18:22:27.304Z,1.93
2023-04-15T18:24:58.942Z,1.67
2023-04-15T18:27:27.427Z,1.90
2023-04-15T18:29:57.263Z,1.80
2023-04-15T18:32:25.705Z,2.47
2023-04-15T18:34:55.569Z,1.90
2023-04-15T18:37:24.448Z,1.83
2023-04-15T18:39:54.156Z,2.27
2023-04-15T18:42:22.740Z,2.10
2023-04-15T18:44:51.654Z,2.10
2023-04-15T18:47:21.642Z,2.37
2023-04-15T18:49:50.057Z,1.80
2023-04-15T18:52:18.482Z,2.70
2023-04-15T18:54:46.888Z,2.03
2023-04-15T18:57:23.290Z,2.47
2023-04-15T19:00:00.703Z,1.83
2023-04-15T19:02:30.674Z,2.53
2023-04-15T19:04:59.141Z,2.23
2023-04-15T19:07:27.584Z,2.03
2023-04-15T19:09:55.988Z,2.13
2023-04-15T19:12:24.399Z,2.23
2023-04-15T19:14:52.835Z,1.87
2023-04-15T19:17:21.311Z,1.80
2023-04-15T19:19:51.189Z,1.80
2023-04-15T19:22:19.705Z,1.77
2023-04-15T19:24:48.239Z,1.60
2023-04-15T19:27:16.715Z,1.70
2023-04-15T19:29:45.631Z,2.00
2023-04-15T19:32:14.699Z,1.90
2023-04-15T19:34:43.305Z,1.87
2023-04-15T19:37:13.235Z,1.70
2023-04-15T19:39:41.672Z,1.33
2023-04-15T19:42:10.167Z,1.43
2023-04-15T19:44:42.746Z,1.73
2023-04-15T19:47:11.234Z,1.50
2023-04-15T19:49:39.770Z,1.60
2023-04-15T19:52:08.197Z,1.90
2023-04-15T19:54:38.046Z,1.60
2023-04-15T19:57:06.554Z,1.70
2023-04-15T19:59:34.987Z,1.50
2023-04-15T20:02:03.565Z,1.80
2023-04-15T20:04:32.156Z,1.73
2023-04-15T20:07:00.718Z,1.43
2023-04-15T20:09:29.177Z,1.87
2023-04-15T20:12:46.927Z,1.70
2023-04-15T20:14:47.394Z,1.90
2023-04-15T20:17:16.505Z,1.80
2023-04-15T20:19:44.967Z,1.30
2023-04-15T20:22:13.426Z,1.60
2023-04-15T20:24:41.863Z,1.70
2023-04-15T20:27:11.688Z,1.37
2023-04-15T20:29:40.132Z,1.40
2023-04-15T20:32:11.373Z,1.30
2023-04-15T20:34:40.823Z,1.67
2023-04-15T20:37:09.223Z,1.63
2023-04-15T20:39:37.620Z,1.40
2023-04-15T20:42:10.102Z,1.80
2023-04-15T20:44:39.992Z,1.63
2023-04-15T20:47:08.670Z,1.70
2023-04-15T20:49:37.397Z,2.10
2023-04-15T20:52:06.480Z,1.93
2023-04-15T20:54:34.882Z,1.90
2023-04-15T20:57:03.331Z,2.07
2023-04-15T20:59:32.157Z,2.00
2023-04-15T21:02:02.107Z,2.40
2023-04-15T21:04:30.860Z,2.10
2023-04-15T21:06:59.255Z,2.13
2023-04-15T21:09:27.695Z,2.50
2023-04-15T21:14:27.563Z,2.80
2023-04-15T21:16:56.024Z,2.53
2023-04-15T21:19:25.861Z,2.60
2023-04-15T21:21:54.266Z,2.83
2023-04-15T21:24:22.686Z,2.63
2023-04-15T21:26:51.189Z,2.50
2023-04-15T21:29:19.615Z,2.70
2023-04-15T21:31:48.053Z,2.90
2023-04-15T21:34:16.572Z,2.70
2023-04-15T21:36:46.369Z,2.70
2023-04-15T21:39:14.799Z,2.50
2023-04-15T21:41:43.460Z,2.80
2023-04-15T21:44:14.410Z,2.60
2023-04-15T21:46:46.034Z,2.63
2023-04-15T21:49:14.818Z,2.70
2023-04-15T21:51:43.262Z,2.53
2023-04-15T21:54:13.057Z,2.97
2023-04-15T21:56:42.368Z,2.93
2023-04-15T21:59:10.901Z,2.80
2023-04-15T22:01:39.346Z,3.33
2023-04-15T22:04:07.913Z,3.10
2023-04-15T22:06:36.518Z,3.23
2023-04-15T22:09:05.034Z,3.20
2023-04-15T22:11:34.831Z,3.23
2023-04-15T22:14:03.245Z,3.23
2023-04-15T22:16:31.713Z,3.47
2023-04-15T22:19:00.209Z,3.50
2023-04-15T22:21:28.649Z,3.90
2023-04-15T22:24:32.941Z,3.90
2023-04-15T22:26:46.997Z,3.97
2023-04-15T22:29:15.388Z,4.40
2023-04-15T22:31:44.645Z,3.70
2023-04-15T22:34:14.838Z,4.60
2023-04-15T22:36:43.290Z,4.53
2023-04-15T22:39:11.724Z,4.77
2023-04-15T22:41:40.169Z,4.07
2023-04-15T22:44:10.074Z,4.97
2023-04-15T22:46:38.729Z,4.80
2023-04-15T22:49:09.338Z,4.80
2023-04-15T22:51:38.258Z,4.80
2023-04-15T22:54:06.666Z,5.07
2023-04-15T22:56:35.121Z,4.83
2023-04-15T22:59:03.535Z,4.80
2023-04-15T23:01:33.345Z,4.57
2023-04-15T23:04:07.006Z,4.93
2023-04-15T23:06:37.360Z,4.70
2023-04-15T23:09:05.904Z,4.70
2023-04-15T23:11:34.384Z,4.40
2023-04-15T23:14:02.850Z,4.57
2023-04-15T23:16:31.382Z,4.90
2023-04-15T23:19:01.263Z,4.67
2023-04-15T23:21:29.711Z,4.97
2023-04-15T23:23:58.215Z,4.73
2023-04-15T23:26:27.469Z,4.73
2023-04-15T23:28:55.932Z,4.70
2023-04-15T23:31:24.422Z,4.60
2023-04-15T23:33:53.030Z,4.60
2023-04-15T23:36:22.881Z,4.80
2023-04-15T23:38:51.390Z,4.53
2023-04-15T23:41:20.047Z,4.90
2023-04-15T23:43:48.506Z,4.90
2023-04-15T23:46:17.131Z,5.00
2023-04-15T23:48:47.787Z,5.10
2023-04-15T23:51:16.543Z,5.40
2023-04-15T23:53:46.640Z,4.80
2023-04-15T23:56:15.083Z,4.87
2023-04-15T23:58:43.543Z,5.03
